Time;durP1;ratioP1;P1;durP2;ratioP2;P2;SDS_P1;SDS_P2;PMS_P1;PMS_P2;Temp;Humidity;BMP_temperature;BMP_pressure;BME280_temperature;BME280_humidity;BME280_pressure;Samples;Min_cycle;Max_cycle;Signal;HPM_P1;HPM_P2
2022/08/16 00:02:08;;;;;;;7.23;3.97;;;17.80;32.30;;;;;;5047864;28;21156;-67
2022/08/16 00:04:35;;;;;;;7.60;3.20;;;17.80;32.30;;;;;;5054585;28;20472;-67
2022/08/16 00:07:02;;;;;;;5.50;3.40;;;17.80;32.40;;;;;;5055815;28;20482;-67
2022/08/16 00:09:29;;;;;;;5.07;3.03;;;17.80;32.20;;;;;;5048447;28;21117;-67
2022/08/16 00:11:56;;;;;;;6.20;3.83;;;17.80;32.00;;;;;;5040923;28;20488;-67
2022/08/16 00:14:26;;;;;;;6.53;3.80;;;17.80;32.10;;;;;;5046762;28;20493;-67
2022/08/16 00:16:55;;;;;;;5.40;3.07;;;17.80;32.20;;;;;;5053537;28;20567;-67
2022/08/16 00:19:24;;;;;;;5.10;3.07;;;17.80;32.40;;;;;;5047559;28;20462;-67
2022/08/16 00:21:52;;;;;;;5.13;3.20;;;17.90;32.60;;;;;;5044259;28;20477;-68
2022/08/16 00:24:20;;;;;;;7.77;3.27;;;17.90;32.50;;;;;;5052880;28;20462;-68
2022/08/16 00:26:46;;;;;;;6.27;2.97;;;17.90;32.70;;;;;;5048684;28;20870;-67
2022/08/16 00:29:15;;;;;;;6.17;3.57;;;17.90;32.40;;;;;;5049732;28;20466;-67
2022/08/16 00:31:42;;;;;;;5.50;3.13;;;17.80;32.30;;;;;;5045926;28;20480;-67
2022/08/16 00:34:11;;;;;;;5.50;3.43;;;17.80;32.20;;;;;;5058104;28;20465;-67
2022/08/16 00:36:37;;;;;;;7.07;3.03;;;17.80;32.20;;;;;;5054937;28;20569;-67
2022/08/16 00:39:05;;;;;;;5.43;3.13;;;17.80;32.00;;;;;;5048331;28;20464;-68
2022/08/16 00:41:33;;;;;;;4.90;2.27;;;17.90;32.50;;;;;;5048555;28;20456;-67
2022/08/16 00:44:02;;;;;;;5.10;2.60;;;17.90;32.30;;;;;;5052621;28;20481;-67
2022/08/16 00:46:32;;;;;;;5.63;3.30;;;17.90;32.30;;;;;;5046058;28;20505;-67
2022/08/16 00:49:00;;;;;;;5.20;2.63;;;17.90;32.20;;;;;;5051992;28;20461;-67
2022/08/16 00:51:28;;;;;;;6.83;3.67;;;17.80;32.10;;;;;;5048715;28;20478;-67
2022/08/16 00:53:55;;;;;;;6.67;3.57;;;17.80;32.40;;;;;;5051214;28;20461;-68
2022/08/16 00:56:26;;;;;;;5.80;3.43;;;17.70;32.20;;;;;;5048418;28;20475;-68
2022/08/16 00:58:53;;;;;;;5.60;3.13;;;17.70;32.00;;;;;;5049789;28;20459;-68
2022/08/16 01:01:21;;;;;;;7.30;3.30;;;17.70;32.10;;;;;;5048876;28;20476;-68
2022/08/16 01:03:51;;;;;;;5.80;3.53;;;17.70;32.20;;;;;;5056013;28;20461;-68
2022/08/16 01:06:18;;;;;;;7.60;3.53;;;17.70;32.10;;;;;;5057676;28;20474;-68
2022/08/16 01:08:50;;;;;;;7.27;4.53;;;17.60;32.30;;;;;;5043859;28;20458;-68
2022/08/16 01:11:17;;;;;;;7.30;3.63;;;17.60;32.40;;;;;;5052318;28;20517;-68
2022/08/16 01:13:45;;;;;;;5.80;3.70;;;17.60;32.40;;;;;;5047737;28;20569;-68
2022/08/16 01:16:17;;;;;;;7.40;3.90;;;17.50;32.40;;;;;;5040597;28;20553;-68
2022/08/16 01:18:47;;;;;;;6.70;3.57;;;17.50;32.30;;;;;;5047477;28;20458;-68
2022/08/16 01:21:25;;;;;;;6.07;3.27;;;17.50;32.10;;;;;;5042436;28;20458;-68
2022/08/16 01:24:05;;;;;;;7.93;3.90;;;17.50;32.20;;;;;;5054312;28;20466;-68
2022/08/16 01:26:34;;;;;;;6.43;3.63;;;17.40;32.30;;;;;;5049455;28;20485;-67
2022/08/16 01:29:09;;;;;;;8.13;4.10;;;17.40;32.30;;;;;;5048281;28;20453;-68
2022/08/16 01:31:36;;;;;;;6.20;3.80;;;17.40;32.10;;;;;;5045096;28;21016;-68
2022/08/16 01:34:03;;;;;;;7.20;3.90;;;17.40;32.00;;;;;;5047224;28;20462;-68
2022/08/16 01:36:30;;;;;;;6.70;4.27;;;17.30;32.20;;;;;;5044354;28;20478;-68
2022/08/16 01:38:58;;;;;;;6.90;4.00;;;17.30;32.50;;;;;;5048584;28;20458;-68
2022/08/16 01:41:28;;;;;;;8.03;4.27;;;17.30;32.50;;;;;;5047811;28;20454;-68
2022/08/16 01:43:55;;;;;;;6.93;4.30;;;17.20;32.70;;;;;;5052882;28;20461;-68
2022/08/16 01:46:26;;;;;;;5.70;3.00;;;17.30;32.70;;;;;;5048272;28;20479;-69
2022/08/16 01:48:55;;;;;;;6.20;3.17;;;17.20;32.80;;;;;;5047831;28;20485;-68
2022/08/16 01:51:24;;;;;;;7.97;4.10;;;17.20;32.80;;;;;;5047094;28;21005;-68
2022/08/16 01:53:51;;;;;;;8.40;4.17;;;17.20;33.00;;;;;;5051053;28;20458;-68
2022/08/16 01:56:21;;;;;;;6.20;3.47;;;17.20;32.90;;;;;;5043317;28;21127;-68
2022/08/16 01:58:48;;;;;;;5.90;3.30;;;17.20;33.20;;;;;;5052505;28;20465;-68
2022/08/16 02:01:15;;;;;;;6.17;4.10;;;17.20;33.20;;;;;;5033251;28;20474;-68
2022/08/16 02:03:41;;;;;;;6.40;3.80;;;17.10;33.50;;;;;;5030893;28;20469;-68
2022/08/16 02:06:08;;;;;;;8.47;4.40;;;17.10;33.40;;;;;;5041485;28;20482;-66
2022/08/16 02:08:35;;;;;;;6.80;4.13;;;17.10;33.20;;;;;;5042933;28;20873;-68
2022/08/16 02:11:05;;;;;;;7.50;4.00;;;17.10;33.40;;;;;;5044208;28;20489;-68
2022/08/16 02:13:33;;;;;;;10.97;4.63;;;17.10;33.60;;;;;;5045514;28;20473;-68
2022/08/16 02:16:00;;;;;;;8.57;4.27;;;17.00;33.80;;;;;;5041076;28;20481;-68
2022/08/16 02:18:26;;;;;;;12.30;4.27;;;17.00;33.80;;;;;;5040633;28;20469;-68
2022/08/16 02:20:54;;;;;;;8.40;4.57;;;17.00;34.00;;;;;;5042523;28;20462;-68
2022/08/16 02:23:21;;;;;;;7.63;4.50;;;17.00;34.00;;;;;;5048046;28;20458;-68
2022/08/16 02:25:48;;;;;;;8.80;5.07;;;16.90;34.30;;;;;;5044480;28;20478;-68
2022/08/16 02:28:16;;;;;;;6.73;4.37;;;17.00;34.00;;;;;;5045299;28;20464;-68
2022/08/16 02:30:45;;;;;;;11.90;5.20;;;17.00;34.00;;;;;;5045785;28;20462;-68
2022/08/16 02:33:13;;;;;;;7.90;5.30;;;16.90;33.90;;;;;;5044897;28;20481;-68
2022/08/16 02:35:39;;;;;;;6.70;4.07;;;17.00;33.70;;;;;;5040868;28;20489;-67
2022/08/16 02:38:07;;;;;;;5.97;4.07;;;17.00;33.80;;;;;;5046405;28;20458;-68
2022/08/16 02:40:34;;;;;;;8.77;4.50;;;17.00;33.80;;;;;;5042951;28;20561;-68
2022/08/16 02:43:00;;;;;;;6.93;4.17;;;17.00;34.00;;;;;;5043573;28;20460;-68
2022/08/16 02:45:28;;;;;;;6.90;4.40;;;16.90;34.00;;;;;;5045733;28;20497;-68
2022/08/16 02:47:57;;;;;;;7.80;4.80;;;16.90;33.80;;;;;;5046919;28;20458;-68
2022/08/16 02:50:24;;;;;;;6.43;4.30;;;16.90;34.00;;;;;;5054926;28;20465;-67
2022/08/16 02:52:51;;;;;;;6.30;4.00;;;16.90;34.20;;;;;;5044385;28;20481;-68
2022/08/16 02:55:18;;;;;;;6.87;4.30;;;16.90;34.10;;;;;;5047322;28;21004;-68
2022/08/16 02:57:45;;;;;;;6.50;4.10;;;16.90;34.20;;;;;;5044280;28;20469;-68
2022/08/16 03:00:14;;;;;;;7.57;4.60;;;16.80;34.00;;;;;;5046145;28;20490;-67
2022/08/16 03:02:43;;;;;;;7.30;4.30;;;16.80;33.90;;;;;;5045542;28;20465;-68
2022/08/16 03:05:13;;;;;;;6.43;4.43;;;16.80;33.80;;;;;;5045828;28;20466;-67
2022/08/16 03:07:40;;;;;;;7.50;4.80;;;16.80;33.80;;;;;;5044733;28;20933;-68
2022/08/16 03:10:11;;;;;;;7.73;5.37;;;16.80;33.80;;;;;;5046921;28;20450;-68
2022/08/16 03:12:38;;;;;;;7.30;4.83;;;16.70;34.00;;;;;;5041750;28;20498;-68
2022/08/16 03:15:06;;;;;;;8.53;5.53;;;16.70;34.00;;;;;;5041513;28;20454;-68
2022/08/16 03:17:34;;;;;;;9.67;4.73;;;16.70;34.30;;;;;;5045254;28;20474;-70
2022/08/16 03:20:01;;;;;;;9.40;5.17;;;16.70;34.60;;;;;;5045261;28;20460;-68
2022/08/16 03:22:29;;;;;;;9.70;5.07;;;16.70;34.60;;;;;;5040723;28;20511;-66
2022/08/16 03:24:58;;;;;;;9.80;5.03;;;16.70;34.40;;;;;;5051972;28;20458;-68
2022/08/16 03:27:26;;;;;;;8.80;4.40;;;16.70;34.10;;;;;;5045855;28;20492;-68
2022/08/16 03:29:53;;;;;;;7.53;4.00;;;16.70;34.20;;;;;;5048860;28;20458;-68
2022/08/16 03:32:19;;;;;;;7.30;4.20;;;16.70;34.30;;;;;;5047422;28;20465;-68
2022/08/16 03:34:47;;;;;;;6.57;4.27;;;16.70;34.10;;;;;;5041333;28;20483;-69
2022/08/16 03:37:13;;;;;;;7.83;4.40;;;16.70;33.90;;;;;;5048617;28;20539;-68
2022/08/16 03:39:41;;;;;;;6.87;4.20;;;16.70;33.90;;;;;;5049258;28;20458;-67
2022/08/16 03:42:08;;;;;;;9.50;4.40;;;16.70;33.70;;;;;;5045341;28;20457;-69
2022/08/16 03:44:35;;;;;;;7.40;4.57;;;16.60;33.70;;;;;;5052600;28;20466;-67
2022/08/16 03:47:02;;;;;;;11.60;5.50;;;16.60;33.70;;;;;;5040148;28;20482;-67
2022/08/16 03:49:29;;;;;;;11.17;5.50;;;16.60;34.00;;;;;;5048783;28;20465;-68
2022/08/16 03:51:56;;;;;;;10.10;5.37;;;16.50;35.00;;;;;;5050695;28;20535;-69
2022/08/16 03:54:23;;;;;;;11.83;5.97;;;16.50;35.00;;;;;;5048482;28;20458;-69
2022/08/16 03:56:51;;;;;;;10.23;5.23;;;16.50;35.00;;;;;;5046458;28;20488;-70
2022/08/16 03:59:18;;;;;;;10.50;6.13;;;16.40;35.20;;;;;;5045597;28;20485;-70
2022/08/16 04:01:45;;;;;;;11.13;6.17;;;16.40;35.60;;;;;;5034567;28;20543;-69
2022/08/16 04:04:11;;;;;;;10.53;6.10;;;16.40;36.10;;;;;;5046406;28;20493;-70
2022/08/16 04:06:38;;;;;;;9.13;5.67;;;16.30;36.00;;;;;;5043369;28;20973;-69
2022/08/16 04:09:05;;;;;;;10.30;5.90;;;16.30;36.50;;;;;;5059765;28;20568;-69
2022/08/16 04:11:32;;;;;;;9.30;5.60;;;16.20;36.30;;;;;;5049295;28;21045;-74
2022/08/16 04:14:00;;;;;;;10.17;5.37;;;16.20;36.90;;;;;;5041762;28;20959;-69
2022/08/16 04:16:27;;;;;;;9.00;5.13;;;16.20;37.00;;;;;;5048210;28;21005;-70
2022/08/16 04:18:54;;;;;;;9.37;5.63;;;16.10;37.60;;;;;;5052851;28;20457;-70
2022/08/16 04:21:20;;;;;;;9.00;5.57;;;16.10;37.30;;;;;;5033403;28;20465;-69
2022/08/16 04:23:47;;;;;;;8.00;5.60;;;16.20;37.00;;;;;;5044562;28;20480;-69
2022/08/16 04:26:14;;;;;;;8.63;5.27;;;16.20;36.90;;;;;;5046329;28;20485;-69
2022/08/16 04:28:41;;;;;;;8.20;4.93;;;16.20;36.80;;;;;;5042579;28;20473;-69
2022/08/16 04:31:10;;;;;;;7.43;4.83;;;16.30;36.70;;;;;;5043830;28;20482;-69
2022/08/16 04:33:37;;;;;;;7.37;4.97;;;16.30;36.60;;;;;;5039046;28;21005;-70
2022/08/16 04:36:04;;;;;;;8.00;5.23;;;16.30;36.60;;;;;;5046252;28;20520;-70
2022/08/16 04:38:31;;;;;;;7.13;4.90;;;16.30;36.60;;;;;;5041942;28;20462;-69
2022/08/16 04:40:57;;;;;;;7.60;5.00;;;16.30;36.70;;;;;;5039775;28;20463;-69
2022/08/16 04:43:24;;;;;;;7.33;5.00;;;16.40;36.60;;;;;;5047476;28;20496;-68
2022/08/16 04:45:51;;;;;;;10.40;5.60;;;16.40;36.20;;;;;;5041768;28;20485;-67
2022/08/16 04:48:19;;;;;;;11.03;5.27;;;16.50;36.30;;;;;;5046398;28;20463;-67
2022/08/16 04:50:46;;;;;;;10.43;5.83;;;16.50;36.30;;;;;;5045041;28;20460;-67
2022/08/16 04:53:13;;;;;;;18.23;5.00;;;16.50;36.40;;;;;;5036334;28;20836;-71
2022/08/16 04:55:40;;;;;;;8.20;4.87;;;16.60;36.30;;;;;;5041732;28;20858;-71
2022/08/16 04:58:08;;;;;;;8.80;5.07;;;16.70;36.10;;;;;;5045350;28;20950;-71
2022/08/16 05:00:36;;;;;;;8.10;4.70;;;16.70;36.20;;;;;;5047234;28;20464;-71
2022/08/16 05:03:06;;;;;;;11.33;4.97;;;16.80;36.10;;;;;;5061410;28;20508;-72
2022/08/16 05:05:35;;;;;;;8.30;4.90;;;16.90;36.10;;;;;;5058037;28;20526;-72
2022/08/16 05:08:03;;;;;;;6.83;4.57;;;17.00;36.00;;;;;;5060240;28;20464;-73
2022/08/16 05:10:29;;;;;;;7.67;4.67;;;17.10;35.90;;;;;;5063789;28;20453;-74
2022/08/16 05:12:56;;;;;;;6.90;4.23;;;17.20;35.90;;;;;;5058076;28;20445;-74
2022/08/16 05:15:23;;;;;;;7.40;4.90;;;17.50;35.90;;;;;;5062858;28;20920;-73
2022/08/16 05:17:50;;;;;;;7.37;4.50;;;17.80;35.10;;;;;;5061442;28;20453;-74
2022/08/16 05:20:17;;;;;;;7.80;4.77;;;18.20;34.30;;;;;;5058420;28;20457;-75
2022/08/16 05:22:46;;;;;;;7.90;4.90;;;18.50;33.30;;;;;;5062485;28;20473;-73
2022/08/16 05:25:13;;;;;;;7.60;5.10;;;19.00;31.90;;;;;;5057528;28;20461;-67
2022/08/16 05:27:40;;;;;;;7.97;4.87;;;19.80;29.70;;;;;;5061713;28;20465;-65
2022/08/16 05:30:11;;;;;;;6.17;4.30;;;20.70;27.20;;;;;;5050902;28;20688;-68
2022/08/16 05:32:38;;;;;;;8.20;4.63;;;21.70;24.20;;;;;;5034851;28;20911;-67
2022/08/16 05:35:06;;;;;;;6.00;3.93;;;22.80;21.10;;;;;;5043653;28;20812;-66
2022/08/16 05:37:33;;;;;;;7.30;4.80;;;24.00;18.20;;;;;;5042868;28;20488;-67
2022/08/16 05:40:01;;;;;;;6.30;3.93;;;25.30;15.40;;;;;;5044412;28;20462;-65
2022/08/16 05:42:28;;;;;;;7.20;4.50;;;26.60;12.30;;;;;;5044099;28;20817;-67
2022/08/16 05:44:55;;;;;;;6.33;4.07;;;27.80;10.10;;;;;;5042209;28;20466;-65
2022/08/16 05:47:22;;;;;;;7.00;4.37;;;29.10;8.20;;;;;;5030927;28;20482;-66
2022/08/16 05:49:49;;;;;;;6.10;3.97;;;29.10;6.60;;;;;;5036533;28;20988;-66
2022/08/16 05:52:15;;;;;;;5.23;3.43;;;28.20;7.60;;;;;;5035788;28;20732;-65
2022/08/16 05:54:43;;;;;;;5.80;4.00;;;27.40;8.70;;;;;;5035800;28;20854;-65
2022/08/16 05:57:11;;;;;;;6.17;3.80;;;26.80;9.50;;;;;;5042505;28;20559;-65
2022/08/16 05:59:38;;;;;;;8.87;4.47;;;26.20;10.90;;;;;;5041143;28;20797;-67
2022/08/16 06:02:06;;;;;;;5.67;3.50;;;25.90;11.90;;;;;;5060500;28;20465;-65
2022/08/16 06:04:33;;;;;;;7.43;3.67;;;25.90;12.10;;;;;;5059520;28;20472;-64
2022/08/16 06:07:04;;;;;;;8.10;3.70;;;26.30;12.20;;;;;;5070013;28;20784;-67
2022/08/16 06:09:31;;;;;;;6.33;3.97;;;27.20;10.20;;;;;;5057014;28;20465;-66
2022/08/16 06:11:59;;;;;;;6.00;4.00;;;27.60;9.60;;;;;;5073645;28;20827;-66
2022/08/16 06:14:27;;;;;;;8.33;3.30;;;29.20;8.00;;;;;;5068523;28;20457;-70
2022/08/16 06:16:54;;;;;;;7.00;3.50;;;31.30;4.70;;;;;;5059109;28;20485;-70
2022/08/16 06:19:21;;;;;;;6.37;3.40;;;32.50;1.80;;;;;;5071751;28;20464;-70
2022/08/16 06:21:48;;;;;;;4.83;3.20;;;32.80;1.00;;;;;;5069167;28;20816;-70
2022/08/16 06:24:15;;;;;;;6.27;3.10;;;34.20;1.00;;;;;;5070458;28;20485;-70
2022/08/16 06:26:42;;;;;;;5.33;2.87;;;35.60;1.00;;;;;;5073999;22;20572;-70
2022/08/16 06:29:09;;;;;;;5.63;2.93;;;37.00;1.00;;;;;;5078876;28;20457;-67
2022/08/16 06:31:38;;;;;;;4.93;2.87;;;38.20;1.00;;;;;;5064826;28;20473;-69
2022/08/16 06:34:05;;;;;;;4.77;2.70;;;39.20;1.00;;;;;;5059268;28;20453;-70
2022/08/16 06:36:31;;;;;;;4.23;2.60;;;40.00;1.00;;;;;;5057996;28;20484;-68
2022/08/16 06:38:59;;;;;;;5.20;2.50;;;40.70;1.00;;;;;;5054746;28;20484;-67
2022/08/16 06:41:26;;;;;;;5.50;3.20;;;41.50;1.00;;;;;;5092530;22;20496;-59
2022/08/16 06:43:53;;;;;;;4.67;2.63;;;42.30;1.00;;;;;;5063757;28;20581;-61
2022/08/16 06:46:25;;;;;;;5.37;3.40;;;42.90;1.00;;;;;;5058201;28;20492;-62
2022/08/16 06:48:54;;;;;;;4.90;2.70;;;43.50;1.00;;;;;;5060878;28;20449;-62
2022/08/16 06:51:21;;;;;;;4.63;2.60;;;44.30;1.00;;;;;;5063373;28;20461;-62
2022/08/16 06:53:48;;;;;;;5.53;3.10;;;45.00;1.00;;;;;;5054361;28;20472;-62
2022/08/16 06:56:15;;;;;;;5.60;3.10;;;45.70;1.00;;;;;;5057373;28;20981;-61
2022/08/16 06:58:42;;;;;;;4.20;2.73;;;46.20;1.00;;;;;;5055540;28;20755;-61
2022/08/16 07:01:09;;;;;;;4.33;2.80;;;46.50;1.00;;;;;;5068678;28;20511;-61
2022/08/16 07:03:36;;;;;;;4.60;3.03;;;46.80;1.00;;;;;;5076522;28;20480;-61
2022/08/16 07:06:06;;;;;;;6.27;3.00;;;47.40;1.00;;;;;;5079447;28;20456;-61
2022/08/16 07:08:33;;;;;;;4.07;2.40;;;47.70;1.00;;;;;;5080130;28;21046;-61
2022/08/16 07:11:00;;;;;;;4.40;2.83;;;47.90;1.00;;;;;;5090494;28;20468;-62
2022/08/16 07:13:29;;;;;;;4.97;2.83;;;48.10;1.00;;;;;;5080987;28;20481;-60
2022/08/16 07:15:58;;;;;;;4.10;3.00;;;48.60;1.00;;;;;;5075045;28;20461;-61
2022/08/16 07:18:25;;;;;;;6.30;3.93;;;48.80;1.00;;;;;;5079288;28;20469;-62
2022/08/16 07:20:53;;;;;;;4.80;3.23;;;49.10;1.00;;;;;;5078311;28;20453;-61
2022/08/16 07:23:22;;;;;;;4.67;2.93;;;49.50;1.00;;;;;;5078866;28;20480;-61
2022/08/16 07:25:49;;;;;;;4.60;2.60;;;49.70;1.00;;;;;;5078542;28;22846;-61
2022/08/16 07:28:18;;;;;;;5.53;2.60;;;49.90;1.00;;;;;;5081863;28;20464;-61
2022/08/16 07:30:46;;;;;;;5.27;2.20;;;50.30;1.00;;;;;;5076802;28;20544;-62
2022/08/16 07:33:16;;;;;;;4.40;2.57;;;50.50;1.00;;;;;;5076094;28;20472;-61
2022/08/16 07:35:43;;;;;;;5.37;2.30;;;50.80;1.00;;;;;;5079335;28;20457;-62
2022/08/16 07:38:11;;;;;;;5.53;2.93;;;51.10;1.00;;;;;;5073184;28;20461;-61
2022/08/16 07:40:39;;;;;;;4.57;2.50;;;51.30;1.00;;;;;;5081948;28;20476;-61
2022/08/16 07:43:06;;;;;;;3.73;2.30;;;51.50;1.00;;;;;;5085337;28;20498;-61
2022/08/16 07:45:33;;;;;;;4.30;2.10;;;51.80;1.00;;;;;;5074688;28;20952;-61
2022/08/16 07:48:00;;;;;;;3.97;2.23;;;52.10;1.00;;;;;;5083942;28;20453;-62
2022/08/16 07:50:28;;;;;;;5.00;2.63;;;52.50;1.00;;;;;;5079975;28;20913;-61
2022/08/16 07:52:55;;;;;;;5.50;2.53;;;52.80;1.00;;;;;;5076700;28;20483;-61
2022/08/16 07:55:22;;;;;;;4.40;2.30;;;52.80;1.00;;;;;;5081231;28;20464;-62
2022/08/16 07:57:50;;;;;;;3.50;2.00;;;53.00;1.00;;;;;;5078823;28;20484;-62
2022/08/16 08:00:18;;;;;;;4.93;2.60;;;53.20;1.00;;;;;;5075111;28;20467;-62
2022/08/16 08:02:46;;;;;;;5.43;2.20;;;53.60;1.00;;;;;;5086468;28;20882;-62
2022/08/16 08:05:13;;;;;;;3.70;2.20;;;53.90;1.00;;;;;;5082401;28;20520;-62
2022/08/16 08:07:40;;;;;;;5.27;2.50;;;54.50;1.00;;;;;;5077753;28;20528;-63
2022/08/16 08:10:09;;;;;;;4.77;2.70;;;54.70;1.00;;;;;;5073789;28;20489;-63
2022/08/16 08:12:36;;;;;;;4.80;2.10;;;54.90;1.00;;;;;;5084222;28;20958;-62
2022/08/16 08:15:08;;;;;;;3.70;2.20;;;55.00;1.00;;;;;;5082274;28;20513;-62
2022/08/16 08:17:37;;;;;;;3.70;2.00;;;55.00;1.00;;;;;;5084634;28;20452;-63
2022/08/16 08:20:05;;;;;;;5.47;2.43;;;55.30;1.00;;;;;;5082667;28;20459;-62
2022/08/16 08:22:33;;;;;;;3.93;2.37;;;55.40;1.00;;;;;;5083859;28;20898;-62
2022/08/16 08:25:01;;;;;;;6.00;2.53;;;55.70;1.00;;;;;;5084175;28;20313;-63
2022/08/16 08:27:27;;;;;;;7.30;2.60;;;55.60;1.00;;;;;;5083495;28;20278;-62
2022/08/16 08:29:54;;;;;;;3.80;2.00;;;55.70;1.00;;;;;;5082805;28;20461;-63
2022/08/16 08:32:24;;;;;;;5.23;2.30;;;56.10;1.00;;;;;;5083363;28;20229;-63
2022/08/16 08:34:51;;;;;;;4.73;2.30;;;56.60;1.00;;;;;;5084224;28;20190;-63
2022/08/16 08:37:18;;;;;;;4.88;2.15;;;56.70;1.00;;;;;;5084656;28;20216;-63
2022/08/16 08:39:45;;;;;;;7.75;2.33;;;56.80;1.00;;;;;;5079221;28;20655;-63
2022/08/16 08:42:13;;;;;;;5.15;2.42;;;56.90;1.00;;;;;;5084087;28;20197;-63
2022/08/16 08:44:40;;;;;;;4.20;2.40;;;57.10;1.00;;;;;;5087016;28;20221;-62
2022/08/16 08:47:07;;;;;;;3.45;2.08;;;57.20;1.00;;;;;;5083812;28;20198;-62
2022/08/16 08:49:36;;;;;;;4.05;2.10;;;57.40;1.00;;;;;;5088492;28;20681;-63
2022/08/16 08:52:05;;;;;;;5.43;2.53;;;57.40;1.00;;;;;;5082599;28;20194;-63
2022/08/16 08:54:33;;;;;;;4.15;2.40;;;57.60;1.00;;;;;;5082699;28;20287;-62
2022/08/16 08:57:00;;;;;;;7.85;2.55;;;57.80;1.00;;;;;;5082761;28;20194;-63
2022/08/16 08:59:27;;;;;;;5.15;2.38;;;57.90;1.00;;;;;;5089322;28;20309;-64
2022/08/16 09:01:54;;;;;;;4.32;2.50;;;57.70;1.00;;;;;;5083605;28;20225;-62
2022/08/16 09:04:21;;;;;;;6.20;2.67;;;58.10;1.00;;;;;;5083312;28;20834;-62
2022/08/16 09:06:52;;;;;;;4.70;2.13;;;58.20;1.00;;;;;;5082424;28;20207;-63
2022/08/16 09:09:19;;;;;;;4.78;2.13;;;58.00;1.00;;;;;;5081556;28;20830;-63
2022/08/16 09:11:46;;;;;;;4.40;2.22;;;57.90;1.00;;;;;;5088462;28;20243;-63
2022/08/16 09:14:13;;;;;;;3.60;2.08;;;57.80;1.00;;;;;;5080990;28;20244;-63
2022/08/16 09:16:40;;;;;;;5.55;2.40;;;57.70;1.00;;;;;;5083361;28;20193;-64
2022/08/16 09:19:07;;;;;;;4.22;2.25;;;57.80;1.00;;;;;;5083104;28;20195;-63
2022/08/16 09:21:36;;;;;;;4.40;2.72;;;57.80;1.00;;;;;;5089334;28;20670;-63
2022/08/16 09:24:05;;;;;;;3.97;2.33;;;58.20;1.00;;;;;;5078105;28;20245;-61
2022/08/16 09:26:32;;;;;;;5.13;2.65;;;58.30;1.00;;;;;;5081408;28;20221;-61
2022/08/16 09:28:59;;;;;;;4.22;2.30;;;57.90;1.00;;;;;;5080440;28;20724;-63
2022/08/16 09:31:26;;;;;;;4.15;2.20;;;58.10;1.00;;;;;;5081130;28;20299;-63
2022/08/16 09:33:53;;;;;;;4.75;2.40;;;58.50;1.00;;;;;;5082190;28;20217;-62
2022/08/16 09:36:21;;;;;;;4.63;2.30;;;57.90;1.00;;;;;;5086862;28;20243;-62
2022/08/16 09:38:48;;;;;;;4.50;2.80;;;55.30;1.00;;;;;;5084937;28;20194;-63
2022/08/16 09:41:16;;;;;;;5.20;3.00;;;52.80;1.00;;;;;;5084835;28;20927;-63
2022/08/16 09:43:44;;;;;;;4.47;2.47;;;50.50;1.00;;;;;;5083584;28;20838;-63
2022/08/16 09:46:11;;;;;;;5.70;3.03;;;49.30;1.00;;;;;;5083538;28;21172;-62
2022/08/16 09:48:40;;;;;;;5.53;3.20;;;50.40;1.00;;;;;;5084423;28;20463;-62
2022/08/16 09:51:08;;;;;;;7.93;3.40;;;51.70;1.00;;;;;;5081702;28;20455;-62
2022/08/16 09:53:36;;;;;;;6.03;2.93;;;52.70;1.00;;;;;;5087228;28;20511;-63
2022/08/16 09:56:05;;;;;;;3.90;2.13;;;54.10;1.00;;;;;;5081048;28;20464;-63
2022/08/16 09:58:33;;;;;;;4.00;2.70;;;55.00;1.00;;;;;;5082903;28;21080;-62
2022/08/16 10:01:00;;;;;;;6.40;2.70;;;55.60;1.00;;;;;;5079304;28;20480;-62
2022/08/16 10:03:27;;;;;;;7.57;2.80;;;56.20;1.00;;;;;;5086490;28;20979;-62
2022/08/16 10:05:54;;;;;;;4.03;2.50;;;56.70;1.00;;;;;;5083105;28;20897;-62
2022/08/16 10:08:22;;;;;;;5.60;2.50;;;56.90;1.00;;;;;;5088498;28;20468;-62
2022/08/16 10:13:33;;;;;;;5.20;2.60;;;57.10;1.00;;;;;;5080404;28;20908;-62
2022/08/16 10:16:01;;;;;;;4.27;2.33;;;57.30;1.00;;;;;;5082293;28;20259;-62
2022/08/16 10:18:30;;;;;;;4.50;2.37;;;57.10;1.00;;;;;;5085977;28;20198;-63
2022/08/16 10:20:58;;;;;;;6.00;2.80;;;56.70;1.00;;;;;;5088493;28;20193;-64
2022/08/16 10:23:25;;;;;;;4.93;2.60;;;55.70;1.00;;;;;;5085494;28;20304;-62
2022/08/16 10:25:53;;;;;;;5.00;2.53;;;54.00;1.00;;;;;;5077790;28;20506;-62
2022/08/16 10:28:20;;;;;;;6.73;3.27;;;53.30;1.00;;;;;;5081292;28;20464;-61
2022/08/16 10:30:47;;;;;;;8.57;3.00;;;51.30;1.00;;;;;;5075231;28;20476;-63
2022/08/16 10:33:16;;;;;;;5.60;2.90;;;50.50;1.00;;;;;;5083615;28;20480;-62
2022/08/16 10:35:45;;;;;;;4.50;2.50;;;49.90;1.00;;;;;;5082840;28;20529;-62
2022/08/16 10:38:12;;;;;;;5.40;2.80;;;48.70;1.00;;;;;;5079622;28;20457;-62
2022/08/16 10:40:40;;;;;;;4.30;2.40;;;47.60;1.00;;;;;;5085231;28;20472;-62
2022/08/16 10:43:07;;;;;;;5.50;2.77;;;46.50;1.00;;;;;;5082294;28;20476;-62
2022/08/16 10:45:35;;;;;;;5.57;3.40;;;45.30;1.00;;;;;;5094358;28;20510;-62
2022/08/16 10:48:02;;;;;;;4.77;2.97;;;44.10;1.00;;;;;;5085707;28;20595;-62
2022/08/16 10:50:32;;;;;;;5.20;3.20;;;43.10;1.00;;;;;;5083396;28;20532;-63
2022/08/16 10:53:05;;;;;;;5.10;2.90;;;42.20;1.00;;;;;;5081180;28;20579;-63
2022/08/16 10:55:35;;;;;;;4.87;2.80;;;41.50;1.00;;;;;;5089421;28;20476;-62
2022/08/16 10:58:03;;;;;;;7.90;2.90;;;41.00;1.00;;;;;;5082766;28;20472;-62
2022/08/16 11:00:32;;;;;;;7.80;3.60;;;40.40;1.00;;;;;;5081472;28;20929;-62
2022/08/16 11:03:00;;;;;;;7.00;3.67;;;39.80;1.00;;;;;;5082921;28;20488;-62
2022/08/16 11:05:29;;;;;;;8.33;4.10;;;39.30;1.00;;;;;;5084905;28;20448;-62
2022/08/16 11:07:58;;;;;;;5.53;3.53;;;38.80;1.00;;;;;;5077636;28;20452;-62
2022/08/16 11:10:29;;;;;;;8.50;2.73;;;38.30;1.00;;;;;;5078477;28;20929;-61
2022/08/16 11:12:56;;;;;;;6.23;3.03;;;37.70;1.00;;;;;;5073344;28;20541;-62
2022/08/16 11:15:23;;;;;;;6.90;3.90;;;37.10;1.00;;;;;;5075967;28;20480;-61
2022/08/16 11:17:51;;;;;;;5.97;3.40;;;36.70;1.00;;;;;;5081256;28;20889;-62
2022/08/16 11:20:19;;;;;;;6.20;3.87;;;36.20;1.00;;;;;;5085807;28;20456;-62
2022/08/16 11:22:47;;;;;;;5.20;3.10;;;35.80;1.00;;;;;;5079374;28;20476;-62
2022/08/16 11:25:18;;;;;;;7.20;3.40;;;35.60;1.00;;;;;;5076361;28;20460;-62
2022/08/16 11:27:45;;;;;;;6.23;2.93;;;35.40;1.00;;;;;;5079400;28;20489;-61
2022/08/16 11:30:14;;;;;;;7.33;3.60;;;35.20;1.00;;;;;;5080848;28;20499;-62
2022/08/16 11:32:43;;;;;;;6.73;4.00;;;35.00;1.00;;;;;;5075353;28;20482;-62
2022/08/16 11:35:12;;;;;;;6.70;3.30;;;34.60;1.00;;;;;;5077123;28;20578;-61
2022/08/16 11:37:39;;;;;;;7.67;4.00;;;34.30;1.00;;;;;;5080162;28;20463;-61
2022/08/16 11:40:08;;;;;;;9.93;4.00;;;34.10;1.00;;;;;;5085574;28;20476;-62
2022/08/16 11:42:36;;;;;;;6.40;3.50;;;33.90;1.00;;;;;;5077322;28;21002;-62
2022/08/16 11:45:04;;;;;;;6.27;3.40;;;33.60;1.00;;;;;;5071762;28;20510;-64
2022/08/16 11:57:06;;;;;;;6.43;3.13;;;32.80;1.00;;;;;;5083385;28;20463;-64
2022/08/16 11:59:35;;;;;;;7.60;4.00;;;32.50;1.00;;;;;;5086904;28;20462;-66
2022/08/16 12:02:02;;;;;;;9.13;3.03;;;32.30;1.00;;;;;;5084805;28;20995;-64
2022/08/16 12:04:30;;;;;;;8.43;3.57;;;32.20;1.00;;;;;;5084583;28;20472;-66
2022/08/16 12:06:57;;;;;;;5.23;3.07;;;32.10;1.00;;;;;;5087050;28;20547;-64
2022/08/16 12:09:24;;;;;;;9.37;3.93;;;31.90;1.00;;;;;;5087292;28;20483;-64
2022/08/16 12:11:51;;;;;;;5.80;3.60;;;31.70;1.00;;;;;;5084565;28;20452;-63
2022/08/16 12:14:18;;;;;;;7.17;3.63;;;31.60;1.00;;;;;;5084904;28;20572;-64
2022/08/16 12:16:46;;;;;;;5.67;3.30;;;31.50;1.00;;;;;;5078444;28;20472;-63
2022/08/16 12:19:13;;;;;;;8.87;3.47;;;31.40;1.00;;;;;;5081426;28;20460;-65
2022/08/16 12:21:41;;;;;;;8.63;4.53;;;31.40;1.00;;;;;;5089884;28;20551;-65
2022/08/16 12:24:08;;;;;;;9.40;3.37;;;31.30;1.00;;;;;;5081204;28;20488;-65
2022/08/16 12:26:35;;;;;;;7.10;4.30;;;31.20;1.00;;;;;;5089667;28;20448;-63
2022/08/16 12:29:02;;;;;;;5.83;3.10;;;31.20;1.00;;;;;;5081043;28;21017;-63
2022/08/16 12:31:30;;;;;;;6.10;3.57;;;31.10;1.00;;;;;;5077238;28;20483;-64
2022/08/16 12:33:58;;;;;;;6.13;3.50;;;31.00;1.00;;;;;;5079669;28;21012;-63
2022/08/16 12:36:26;;;;;;;6.00;3.40;;;30.90;1.00;;;;;;5091880;28;20881;-62
2022/08/16 12:38:54;;;;;;;6.73;3.80;;;30.80;1.00;;;;;;5083817;28;20478;-63
2022/08/16 12:41:22;;;;;;;6.87;2.93;;;30.80;1.00;;;;;;5114522;22;20507;-64
2022/08/16 12:43:49;;;;;;;6.87;3.17;;;30.80;1.00;;;;;;5062936;28;20458;-63
2022/08/16 12:46:16;;;;;;;5.13;3.30;;;30.80;1.00;;;;;;5063600;28;20457;-63
2022/08/16 12:48:56;;;;;;;6.10;3.80;;;30.70;1.00;;;;;;5059582;28;20465;-62
2022/08/16 12:51:27;;;;;;;5.40;3.27;;;30.70;1.00;;;;;;5066839;28;21041;-61
2022/08/16 12:53:57;;;;;;;4.73;3.20;;;30.60;1.00;;;;;;5066842;28;20555;-63
2022/08/16 12:56:28;;;;;;;6.37;3.33;;;30.60;1.00;;;;;;5065119;28;20484;-63
2022/08/16 12:58:56;;;;;;;5.63;3.03;;;30.60;1.00;;;;;;5063561;28;20461;-61
2022/08/16 13:01:26;;;;;;;5.90;3.20;;;30.60;1.00;;;;;;5065305;28;20481;-61
2022/08/16 13:03:54;;;;;;;4.80;3.10;;;30.60;1.00;;;;;;5066637;28;20457;-62
2022/08/16 13:06:22;;;;;;;6.43;3.53;;;30.60;1.00;;;;;;5066488;28;20502;-61
2022/08/16 13:08:51;;;;;;;4.80;2.80;;;30.60;1.00;;;;;;5067923;28;20829;-62